NCAR-RAP Real-Time Weather Data

Output produced by METARs form (23 July 2018  17:10 UTC)
found at http://weather.rap.ucar.edu/surface/
 
KJDN 231648Z AUTO 00000KT 24/06 A3026 RMK AO1 SLP238 T02440056
KJDN 231548Z AUTO 08004KT 23/06 A3028 RMK AO1 SLP242 T02330061
 
KGDV 231656Z AUTO 34005KT 10SM CLR 24/07 A3027 RMK AO2 SLP241 T02390067
KGDV 231556Z AUTO 33008KT 10SM CLR 23/07 A3029 RMK AO2 SLP243 T02280072
 
KMLS 231653Z AUTO 06008KT 10SM CLR 24/07 A3027 RMK AO2 SLP236 T02440072
KMLS 231553Z AUTO 10006KT 10SM CLR 23/09 A3028 RMK AO2 SLP239 T02280089
 
KBHK 231651Z AUTO 34008KT 10SM CLR 24/06 A3030 RMK AO2 SLP243 T02390061
KBHK 231551Z AUTO 32006KT 10SM CLR 23/07 A3031 RMK AO2 SLP247 T02280067